Vandenberg Village, California
Current Conditions -  °F | °C
As of 4:35 PM on Saturday 20 Dec 2014 (Local Time) from KLPC Reporting Station
Overcast Overcast  
Wind Chill: 61°   Ceiling: 1200
Heat Index: 61°   Visibility: 10mi
Dew Point: 54°   Wind: 5mph
Humidity: 77%   Direction: 300°WNW
Pressure: 30.19"   Gusts: NA
Location:  34.608°N, 120.364°W
Report Text: KLPC 210035Z AUTO 30004KT 10SM BKN012 OVC023 16/12 A3019 RMK AO1
Loading
Personal Weather Stations






























Interactive Weather Map New forecast layout! Learn more

10-Day Weather Forecast

Advertisements
Track Severe Weather on mobile